Time;durP1;ratioP1;P1;durP2;ratioP2;P2;SDS_P1;SDS_P2;PMS_P1;PMS_P2;Temp;Humidity;BMP_temperature;BMP_pressure;BME280_temperature;BME280_humidity;BME280_pressure;Samples;Min_cycle;Max_cycle;Signal;HPM_P1;HPM_P2
2023/06/02 00:02:05;;;;;;;6.28;2.00;;;;;;;-142.75;100.00;77767.31;5064485;28;20032;-64
2023/06/02 00:04:30;;;;;;;7.47;1.80;;;;;;;-142.75;100.00;77747.63;5059849;28;20039;-63
2023/06/02 00:07:00;;;;;;;7.47;2.83;;;;;;;-142.75;100.00;77747.63;5046821;28;20033;-63
2023/06/02 00:09:25;;;;;;;8.10;2.45;;;;;;;-142.75;100.00;77747.63;5071939;28;20046;-64
2023/06/02 00:11:51;;;;;;;6.07;1.83;;;;;;;-142.75;100.00;77741.72;5067966;28;20056;-63
2023/06/02 00:14:16;;;;;;;11.07;2.80;;;;;;;-142.75;100.00;77751.56;5067467;28;20113;-65
2023/06/02 00:16:44;;;;;;;12.60;2.67;;;;;;;-142.75;100.00;77735.81;5067130;28;20024;-63
2023/06/02 00:19:11;;;;;;;8.57;2.28;;;;;;;-142.75;100.00;77739.75;5067829;28;20020;-64
2023/06/02 00:21:37;;;;;;;11.88;2.33;;;;;;;-142.75;100.00;77751.56;5057354;28;20029;-63
2023/06/02 00:24:02;;;;;;;13.52;2.13;;;;;;;-142.75;100.00;77769.28;5053184;28;20024;-63
2023/06/02 00:26:28;;;;;;;8.30;2.47;;;;;;;-142.75;100.00;77749.59;5064841;28;20024;-64
2023/06/02 00:28:55;;;;;;;6.78;2.25;;;;;;;-142.75;100.00;77753.53;5067417;28;20020;-61
2023/06/02 00:31:21;;;;;;;14.70;2.70;;;;;;;-142.75;100.00;77787.00;5083282;28;20469;-63
2023/06/02 00:33:46;;;;;;;7.78;1.95;;;;;;;-142.75;100.00;77763.38;5067196;28;20056;-63
2023/06/02 00:36:11;;;;;;;8.27;2.72;;;;;;;-142.75;100.00;77771.25;5067382;28;20063;-63
2023/06/02 00:38:37;;;;;;;12.73;2.70;;;;;;;-142.75;100.00;77769.28;5070739;28;20055;-63
2023/06/02 00:41:02;;;;;;;10.52;3.28;;;;;;;-142.75;100.00;77779.13;5047492;28;20439;-63
2023/06/02 00:43:28;;;;;;;12.57;2.45;;;;;;;-142.75;100.00;77773.22;5047246;28;20074;-61
2023/06/02 00:45:53;;;;;;;9.77;2.80;;;;;;;-142.75;100.00;77785.03;5047236;28;20024;-65
2023/06/02 00:48:18;;;;;;;10.52;2.47;;;;;;;-142.75;100.00;77775.19;5047917;28;20108;-60
2023/06/02 00:50:44;;;;;;;11.77;3.35;;;;;;;-142.75;100.00;77788.97;5053706;28;20119;-62
2023/06/02 00:53:11;;;;;;;11.57;2.67;;;;;;;-142.75;100.00;77783.06;5067137;28;20036;-63
2023/06/02 00:55:36;;;;;;;14.55;2.58;;;;;;;-142.75;100.00;77798.81;5067172;28;20526;-59
2023/06/02 00:58:03;;;;;;;11.00;2.58;;;;;;;-142.75;100.00;77792.91;5067377;28;20017;-63
2023/06/02 01:00:33;;;;;;;8.40;2.08;;;;;;;-142.75;100.00;77787.00;5066858;28;20044;-62
2023/06/02 01:02:59;;;;;;;11.98;2.72;;;;;;;-142.75;100.00;77775.19;5067197;28;20089;-64
2023/06/02 01:05:26;;;;;;;13.50;3.00;;;;;;;-142.75;100.00;77775.19;5064370;28;20029;-63
2023/06/02 01:07:58;;;;;;;6.55;2.17;;;;;;;-142.75;100.00;77783.06;5066911;28;20036;-63
2023/06/02 01:10:24;;;;;;;11.10;2.42;;;;;;;-142.75;100.00;77790.94;5066691;28;20546;-63
2023/06/02 01:12:50;;;;;;;9.68;2.30;;;;;;;-142.75;100.00;77787.00;5064808;28;20489;-62
2023/06/02 01:15:15;;;;;;;9.57;2.63;;;;;;;-142.75;100.00;77790.94;5066563;28;20036;-63
2023/06/02 01:17:45;;;;;;;7.93;2.45;;;;;;;-142.75;100.00;77779.13;5067342;28;20104;-63
2023/06/02 01:20:12;;;;;;;9.68;3.20;;;;;;;-142.75;100.00;77781.09;5066313;28;20266;-62
2023/06/02 01:22:46;;;;;;;12.35;2.40;;;;;;;-142.75;100.00;77777.16;5066126;28;20370;-62
2023/06/02 01:25:23;;;;;;;8.73;2.90;;;;;;;-142.75;100.00;77787.00;5066418;28;20397;-64
2023/06/02 01:27:50;;;;;;;8.60;2.33;;;;;;;-142.75;100.00;77804.72;5066482;28;20036;-62
2023/06/02 01:30:17;;;;;;;10.18;2.85;;;;;;;-142.75;100.00;77788.97;5066130;28;20085;-63
2023/06/02 01:32:54;;;;;;;10.85;2.70;;;;;;;-142.75;100.00;77787.00;5050544;28;20577;-62
2023/06/02 01:35:21;;;;;;;9.45;2.60;;;;;;;-142.75;100.00;77804.72;5046306;28;20032;-63
2023/06/02 01:37:54;;;;;;;10.73;2.85;;;;;;;-142.75;100.00;77812.59;5046596;28;20491;-64
2023/06/02 01:40:21;;;;;;;10.68;2.58;;;;;;;-142.75;100.00;77818.50;5055002;28;20039;-63
2023/06/02 01:42:46;;;;;;;8.38;2.30;;;;;;;-142.75;100.00;77814.56;5066128;28;20032;-63
2023/06/02 01:45:14;;;;;;;10.50;2.35;;;;;;;-142.75;100.00;77836.22;5065975;28;20071;-62
2023/06/02 01:47:39;;;;;;;8.07;2.30;;;;;;;-142.75;100.00;77838.19;5061925;28;20059;-63
2023/06/02 01:50:05;;;;;;;12.00;2.33;;;;;;;-142.75;100.00;77853.94;5066047;28;20021;-63
2023/06/02 01:52:31;;;;;;;8.02;2.97;;;;;;;-142.75;100.00;77846.06;5064620;28;20039;-64
2023/06/02 01:54:57;;;;;;;6.97;2.00;;;;;;;-142.75;100.00;77857.88;5045775;28;20401;-64
2023/06/02 01:57:22;;;;;;;11.98;3.28;;;;;;;-142.75;100.00;77844.09;5046169;28;20394;-64
2023/06/02 01:59:47;;;;;;;8.50;2.17;;;;;;;-142.75;100.00;77848.03;5061064;28;20029;-63
2023/06/02 02:02:13;;;;;;;19.67;3.10;;;;;;;-142.75;100.00;77838.19;5045664;28;20043;-62
2023/06/02 02:04:40;;;;;;;13.50;3.33;;;;;;;-142.75;100.00;77877.56;5044496;28;20025;-63
2023/06/02 02:07:08;;;;;;;9.55;2.17;;;;;;;-142.75;100.00;77853.94;5044369;28;20429;-63
2023/06/02 02:09:34;;;;;;;7.40;2.75;;;;;;;-142.75;100.00;77861.81;5045935;28;20024;-61
2023/06/02 02:11:59;;;;;;;8.50;2.00;;;;;;;-142.75;100.00;77853.94;5056816;28;20031;-63
2023/06/02 02:14:25;;;;;;;8.30;2.17;;;;;;;-142.75;100.00;77871.66;5065432;28;20025;-63
2023/06/02 02:16:51;;;;;;;7.95;1.98;;;;;;;-142.75;100.00;77842.13;5070911;22;20548;-65
2023/06/02 02:19:16;;;;;;;7.65;2.17;;;;;;;-142.75;100.00;77857.88;5043180;28;20409;-65
2023/06/02 02:21:42;;;;;;;9.38;2.67;;;;;;;-142.75;100.00;77857.88;5045396;28;20096;-66
2023/06/02 02:24:08;;;;;;;8.55;2.20;;;;;;;-142.75;100.00;77853.94;5045601;28;20629;-64
2023/06/02 02:26:33;;;;;;;7.47;2.35;;;;;;;-142.75;100.00;77853.94;5031704;28;20029;-66
2023/06/02 02:28:59;;;;;;;8.02;2.45;;;;;;;-142.75;100.00;77846.06;5040924;28;20574;-66
2023/06/02 02:31:24;;;;;;;14.75;2.60;;;;;;;-142.75;100.00;77836.22;5025357;28;20036;-66
2023/06/02 02:33:50;;;;;;;8.93;2.20;;;;;;;-142.75;100.00;77826.38;5025285;28;20555;-65
2023/06/02 02:36:16;;;;;;;7.88;2.03;;;;;;;-142.75;100.00;77822.44;5025485;28;20025;-65
2023/06/02 02:38:42;;;;;;;13.13;1.95;;;;;;;-142.75;100.00;77814.56;5025370;28;20541;-66
2023/06/02 02:41:07;;;;;;;8.10;2.20;;;;;;;-142.75;100.00;77824.41;5024778;28;20033;-65
2023/06/02 02:43:32;;;;;;;8.23;1.85;;;;;;;-142.75;100.00;77816.53;5040789;28;20490;-65
2023/06/02 02:45:58;;;;;;;6.70;2.00;;;;;;;-142.75;100.00;77832.28;5025582;28;20025;-66
2023/06/02 02:48:23;;;;;;;11.70;1.75;;;;;;;-142.75;100.00;77842.13;5026017;28;20502;-65
2023/06/02 02:50:48;;;;;;;7.03;1.98;;;;;;;-142.75;100.00;77826.38;5040382;28;20478;-65
2023/06/02 02:53:15;;;;;;;8.50;1.98;;;;;;;-142.75;100.00;77840.16;5025261;28;20698;-65
2023/06/02 02:55:41;;;;;;;7.93;2.00;;;;;;;-142.75;100.00;77846.06;5040403;28;20017;-66
2023/06/02 02:58:08;;;;;;;11.88;2.40;;;;;;;-142.75;100.00;77857.88;5040338;28;20022;-65
2023/06/02 03:00:33;;;;;;;4.45;2.08;;;;;;;-142.75;100.00;77830.31;5032944;28;20028;-66
2023/06/02 03:03:01;;;;;;;13.43;2.17;;;;;;;-142.75;100.00;77828.34;5044954;28;20389;-65
2023/06/02 03:05:26;;;;;;;7.95;2.20;;;;;;;-142.75;100.00;77834.25;5044584;28;20020;-66
2023/06/02 03:07:52;;;;;;;5.82;2.00;;;;;;;-142.75;100.00;77826.38;5044852;28;20029;-66
2023/06/02 03:10:17;;;;;;;8.52;1.92;;;;;;;-142.75;100.00;77842.13;5044688;28;20021;-66
2023/06/02 03:12:43;;;;;;;3.58;1.77;;;;;;;-142.75;100.00;77853.94;5044676;28;20393;-65
2023/06/02 03:15:08;;;;;;;6.88;2.28;;;;;;;-142.75;100.00;77873.63;5044518;28;20017;-65
2023/06/02 03:17:34;;;;;;;10.23;2.25;;;;;;;-142.75;100.00;77875.59;5045637;28;20726;-65
2023/06/02 03:20:00;;;;;;;8.40;2.20;;;;;;;-142.75;100.00;77865.75;5044896;28;20029;-65
2023/06/02 03:22:25;;;;;;;8.68;2.20;;;;;;;-142.75;100.00;77863.78;5044494;28;20107;-64
2023/06/02 03:24:50;;;;;;;9.38;2.58;;;;;;;-142.75;100.00;77869.69;5044693;28;20048;-64
2023/06/02 03:27:16;;;;;;;10.35;2.65;;;;;;;-142.75;100.00;77873.63;5044624;28;20017;-65
2023/06/02 03:29:42;;;;;;;4.90;2.03;;;;;;;-142.75;100.00;77873.63;5044644;28;20085;-65
2023/06/02 03:32:09;;;;;;;6.18;1.77;;;;;;;-142.75;100.00;77867.72;5038250;28;20029;-64
2023/06/02 03:34:35;;;;;;;9.52;2.10;;;;;;;-142.75;100.00;77877.56;5024936;28;20052;-65
2023/06/02 03:37:01;;;;;;;8.65;1.92;;;;;;;-142.75;100.00;77883.47;5024787;28;20037;-65
2023/06/02 03:39:27;;;;;;;7.55;1.85;;;;;;;-142.75;100.00;77889.38;5023584;28;20024;-65
2023/06/02 03:41:52;;;;;;;7.30;2.30;;;;;;;-142.75;100.00;77877.56;5028789;28;20021;-65
2023/06/02 03:44:17;;;;;;;6.13;1.80;;;;;;;-142.75;100.00;77873.63;5035432;28;20100;-65
2023/06/02 03:46:42;;;;;;;8.30;2.50;;;;;;;-142.75;100.00;77885.44;5048497;28;20097;-66
2023/06/02 03:49:08;;;;;;;6.93;1.80;;;;;;;-142.75;100.00;77885.44;5048784;28;20025;-64
2023/06/02 03:51:33;;;;;;;14.18;2.10;;;;;;;-142.75;100.00;77885.44;5048512;28;20024;-65
2023/06/02 03:53:59;;;;;;;9.52;2.22;;;;;;;-142.75;100.00;77889.38;5048342;28;20151;-65
2023/06/02 03:56:25;;;;;;;8.55;1.80;;;;;;;-142.75;100.00;77881.50;5047966;28;20555;-65
2023/06/02 03:58:50;;;;;;;10.05;2.05;;;;;;;-142.75;100.00;77889.38;5048212;28;20021;-65
2023/06/02 04:01:16;;;;;;;8.65;1.75;;;;;;;-142.75;100.00;77873.63;5047952;28;20028;-65
2023/06/02 04:03:42;;;;;;;9.88;1.75;;;;;;;-142.75;100.00;77883.47;5048034;28;20025;-65
2023/06/02 04:06:08;;;;;;;17.65;2.88;;;;;;;-142.75;100.00;77881.50;5048173;28;20019;-64
2023/06/02 04:08:33;;;;;;;16.45;2.22;;;;;;;-142.75;100.00;77889.38;5048132;28;20417;-65
2023/06/02 04:10:59;;;;;;;5.95;1.77;;;;;;;-142.75;100.00;77871.66;5048011;28;20082;-65
2023/06/02 04:13:24;;;;;;;8.27;2.75;;;;;;;-142.75;100.00;77875.59;5047747;28;20025;-65
2023/06/02 04:15:50;;;;;;;9.50;1.90;;;;;;;-142.75;100.00;77877.56;5030245;28;20495;-65
2023/06/02 04:18:15;;;;;;;14.27;2.10;;;;;;;-142.75;100.00;77875.59;5028620;28;20032;-65
2023/06/02 04:20:41;;;;;;;7.50;1.65;;;;;;;-142.75;100.00;77881.50;5027690;28;20052;-64
2023/06/02 04:23:06;;;;;;;10.85;1.50;;;;;;;-142.75;100.00;77881.50;5028341;28;20030;-65
2023/06/02 04:25:32;;;;;;;11.82;1.92;;;;;;;-142.75;100.00;77855.91;5043509;28;20112;-65
2023/06/02 04:27:57;;;;;;;11.73;2.33;;;;;;;-142.75;100.00;77897.25;5027883;28;20112;-65
2023/06/02 04:30:22;;;;;;;11.27;2.35;;;;;;;-142.75;100.00;77885.44;5027363;28;20025;-64
2023/06/02 04:32:49;;;;;;;5.65;1.65;;;;;;;-142.75;100.00;77885.44;5027833;28;20587;-65
2023/06/02 04:35:15;;;;;;;5.53;1.80;;;;;;;-142.75;100.00;77873.63;5027834;28;20025;-64
2023/06/02 04:37:43;;;;;;;11.95;1.95;;;;;;;-142.75;100.00;77861.81;5027603;28;20029;-65
2023/06/02 04:40:09;;;;;;;12.35;1.90;;;;;;;-142.75;100.00;77861.81;5035290;28;20096;-65
2023/06/02 04:42:36;;;;;;;11.32;1.60;;;;;;;-142.75;100.00;77861.81;5062980;28;20028;-65
2023/06/02 04:45:03;;;;;;;9.15;2.30;;;;;;;-142.75;100.00;77865.75;5047352;28;20074;-65
2023/06/02 04:47:28;;;;;;;8.23;1.60;;;;;;;-142.75;100.00;77867.72;5047980;28;20025;-65
2023/06/02 04:49:54;;;;;;;14.18;2.13;;;;;;;-142.75;100.00;77863.78;5047412;28;20160;-64
2023/06/02 04:52:20;;;;;;;12.90;1.70;;;;;;;-142.75;100.00;77863.78;5026235;28;20060;-64
2023/06/02 04:54:45;;;;;;;7.53;1.60;;;;;;;-142.75;100.00;77850.00;5027256;28;20018;-66
2023/06/02 04:57:10;;;;;;;7.95;2.10;;;;;;;-142.75;100.00;77848.03;5041583;28;20112;-64
2023/06/02 04:59:36;;;;;;;11.55;2.00;;;;;;;-142.75;100.00;77836.22;5027579;28;20025;-65
2023/06/02 05:02:01;;;;;;;6.22;1.90;;;;;;;-142.75;100.00;77846.06;5031836;28;20144;-65
2023/06/02 05:04:27;;;;;;;9.85;2.08;;;;;;;-142.75;100.00;77869.69;5047055;28;20099;-65
2023/06/02 05:06:53;;;;;;;8.27;1.90;;;;;;;-142.75;100.00;77853.94;5045739;28;20028;-66
2023/06/02 05:09:19;;;;;;;8.18;1.83;;;;;;;-142.75;100.00;77850.00;5046629;28;20489;-66
2023/06/02 05:11:44;;;;;;;7.00;1.63;;;;;;;-142.75;100.00;77842.13;5046696;28;20024;-65
2023/06/02 05:14:09;;;;;;;12.30;2.17;;;;;;;-142.75;100.00;77844.09;5046742;28;20074;-64
2023/06/02 05:16:36;;;;;;;11.52;1.85;;;;;;;-142.75;100.00;77826.38;5046710;28;20111;-65
2023/06/02 05:19:03;;;;;;;4.80;1.55;;;;;;;-142.75;100.00;77840.16;5047530;28;20017;-65
2023/06/02 05:21:29;;;;;;;7.80;1.80;;;;;;;-142.75;100.00;77848.03;5046560;28;20048;-65
2023/06/02 05:23:55;;;;;;;10.60;1.83;;;;;;;-142.75;100.00;77850.00;5046437;28;20031;-64
2023/06/02 05:26:20;;;;;;;9.27;1.65;;;;;;;-142.75;100.00;77846.06;5046605;28;20431;-64
2023/06/02 05:28:49;;;;;;;9.00;1.45;;;;;;;-142.75;100.00;77830.31;5046538;28;20529;-65
2023/06/02 05:31:14;;;;;;;12.35;1.75;;;;;;;-142.75;100.00;77822.44;5046540;28;20020;-65
2023/06/02 05:33:40;;;;;;;5.85;1.88;;;;;;;-142.75;100.00;77826.38;5046542;28;20028;-64
2023/06/02 05:36:05;;;;;;;8.15;1.73;;;;;;;-142.75;100.00;77838.19;5046720;28;20657;-65
2023/06/02 05:38:30;;;;;;;11.88;1.77;;;;;;;-142.75;100.00;77826.38;5046470;28;20033;-65
2023/06/02 05:40:56;;;;;;;11.70;1.77;;;;;;;-142.75;100.00;77832.28;5046027;28;20138;-65
2023/06/02 05:43:21;;;;;;;8.15;1.95;;;;;;;-142.75;100.00;77814.56;5046257;28;20105;-65
2023/06/02 05:45:46;;;;;;;5.88;1.88;;;;;;;-142.75;100.00;77828.34;5046056;28;20394;-65
2023/06/02 05:48:12;;;;;;;9.27;1.55;;;;;;;-142.75;100.00;77834.25;5062298;28;20118;-65
2023/06/02 05:50:37;;;;;;;10.85;1.90;;;;;;;-142.75;100.00;77818.50;5045876;28;20513;-65
2023/06/02 05:53:02;;;;;;;8.07;1.90;;;;;;;-142.75;100.00;77810.63;5036044;28;20136;-65
2023/06/02 05:55:28;;;;;;;6.78;1.80;;;;;;;-142.75;100.00;77800.78;5026263;28;20692;-65
2023/06/02 05:57:53;;;;;;;10.15;1.98;;;;;;;-142.75;100.00;77820.47;5026124;28;20104;-65
2023/06/02 06:00:20;;;;;;;11.77;2.10;;;;;;;-142.75;100.00;77814.56;5025788;28;20025;-65
2023/06/02 06:02:46;;;;;;;7.35;2.28;;;;;;;-142.75;100.00;77822.44;5026083;28;20402;-65
2023/06/02 06:05:11;;;;;;;6.97;1.73;;;;;;;-142.75;100.00;77828.34;5025807;28;20096;-65
2023/06/02 06:07:37;;;;;;;14.25;2.38;;;;;;;-142.75;100.00;77826.38;5025473;28;20060;-64
2023/06/02 06:10:03;;;;;;;10.07;2.10;;;;;;;-142.75;100.00;77814.56;5043434;28;20027;-65
2023/06/02 06:12:28;;;;;;;6.93;1.90;;;;;;;-142.75;100.00;77798.81;5045475;28;20067;-65
2023/06/02 06:14:53;;;;;;;7.15;1.85;;;;;;;-142.75;100.00;77802.75;5045934;28;20045;-65
2023/06/02 06:17:19;;;;;;;8.35;2.15;;;;;;;-142.75;100.00;77802.75;5061568;28;20106;-65
2023/06/02 06:19:44;;;;;;;8.90;2.20;;;;;;;-142.75;100.00;77785.03;5039782;28;20025;-65
2023/06/02 06:22:12;;;;;;;6.82;1.73;;;;;;;-142.75;100.00;77775.19;5025465;28;20023;-64
2023/06/02 06:24:37;;;;;;;18.33;2.65;;;;;;;-142.75;100.00;77779.13;5025298;28;20151;-65
2023/06/02 06:27:03;;;;;;;10.95;1.60;;;;;;;-142.75;100.00;77779.13;5025302;28;20104;-65
2023/06/02 06:29:28;;;;;;;9.60;1.80;;;;;;;-142.75;100.00;77792.91;5025237;28;20026;-66
2023/06/02 06:31:53;;;;;;;8.68;1.73;;;;;;;-142.75;100.00;77783.06;5040563;28;20045;-65
2023/06/02 06:34:19;;;;;;;7.55;1.60;;;;;;;-142.75;100.00;77798.81;5025934;28;20021;-65
2023/06/02 06:36:46;;;;;;;9.77;1.77;;;;;;;-142.75;100.00;77798.81;5025512;28;20029;-65
2023/06/02 06:39:12;;;;;;;7.32;1.67;;;;;;;-142.75;100.00;77802.75;5025605;28;20421;-64
2023/06/02 06:41:40;;;;;;;9.25;1.90;;;;;;;-142.75;100.00;77796.84;5024024;28;20025;-64
2023/06/02 06:44:05;;;;;;;10.95;1.92;;;;;;;-142.75;100.00;77773.22;5025575;28;20029;-65
2023/06/02 06:46:31;;;;;;;4.88;1.55;;;;;;;-142.75;100.00;77769.28;5025145;28;20550;-64
2023/06/02 06:48:56;;;;;;;4.53;1.23;;;;;;;-142.75;100.00;77765.34;5026050;28;20056;-65
2023/06/02 06:51:22;;;;;;;8.73;1.80;;;;;;;-142.75;100.00;77769.28;5040288;28;20498;-66
2023/06/02 06:53:47;;;;;;;10.70;2.22;;;;;;;-142.75;100.00;77783.06;5025250;28;20037;-65
2023/06/02 06:56:12;;;;;;;7.43;1.60;;;;;;;-142.75;100.00;77788.97;5034810;28;20048;-64
2023/06/02 06:58:39;;;;;;;7.22;1.65;;;;;;;-142.75;100.00;77765.34;5045014;28;20025;-64
2023/06/02 07:01:04;;;;;;;15.75;1.75;;;;;;;-142.75;100.00;77759.44;5044874;28;20028;-65
2023/06/02 07:03:29;;;;;;;10.38;1.88;;;;;;;-142.75;100.00;77759.44;5044786;28;20029;-65
2023/06/02 07:05:55;;;;;;;7.68;1.50;;;;;;;-142.75;100.00;77767.31;5043354;28;20159;-65
2023/06/02 07:08:20;;;;;;;11.02;1.90;;;;;;;-142.75;100.00;77743.69;5024557;28;20028;-66
2023/06/02 07:10:45;;;;;;;9.55;2.05;;;;;;;-142.75;100.00;77741.72;5024481;28;20060;-66
2023/06/02 07:13:11;;;;;;;7.35;1.77;;;;;;;-142.75;100.00;77720.03;5024487;28;20060;-67
2023/06/02 07:15:37;;;;;;;6.35;1.42;;;;;;;-142.75;100.00;77723.97;5024241;28;20095;-66
2023/06/02 07:18:02;;;;;;;8.07;1.60;;;;;;;-142.75;100.00;77704.28;5025476;28;20104;-63
2023/06/02 07:20:27;;;;;;;9.23;1.88;;;;;;;-142.75;100.00;77704.28;5027601;28;20243;-66
2023/06/02 07:22:53;;;;;;;12.52;1.80;;;;;;;-142.75;100.00;77712.16;5027795;28;20048;-65
2023/06/02 07:25:18;;;;;;;8.63;2.25;;;;;;;-142.75;100.00;77731.88;5027818;28;20101;-66
2023/06/02 07:27:43;;;;;;;8.82;1.45;;;;;;;-142.75;100.00;77700.34;5027850;28;20387;-65
2023/06/02 07:30:09;;;;;;;9.63;1.85;;;;;;;-142.75;100.00;77727.94;5028592;28;20034;-66
2023/06/02 07:32:34;;;;;;;13.38;2.38;;;;;;;-142.75;100.00;77702.31;5028470;28;20047;-65
2023/06/02 07:35:00;;;;;;;9.30;1.80;;;;;;;-142.75;100.00;77676.72;5043401;28;20178;-66
2023/06/02 07:37:25;;;;;;;11.32;2.53;;;;;;;-142.75;100.00;77668.84;5028334;28;20433;-65
2023/06/02 07:39:50;;;;;;;12.38;2.22;;;;;;;-142.75;100.00;77674.75;5027923;28;20036;-66
2023/06/02 07:42:16;;;;;;;9.45;1.70;;;;;;;-142.75;100.00;77657.03;5027639;28;20040;-65
2023/06/02 07:44:41;;;;;;;10.95;1.90;;;;;;;-142.75;100.00;77682.63;5026774;28;20028;-66
2023/06/02 07:47:07;;;;;;;10.75;1.95;;;;;;;-142.75;100.00;77655.06;5028287;28;20049;-66
2023/06/02 07:49:33;;;;;;;7.22;1.92;;;;;;;-142.75;100.00;77649.16;5028800;28;20032;-66
2023/06/02 07:51:59;;;;;;;6.88;1.60;;;;;;;-142.75;100.00;77631.44;5028364;28;20155;-66
2023/06/02 07:54:24;;;;;;;10.98;1.70;;;;;;;-142.75;100.00;77651.13;5030603;28;20113;-66
2023/06/02 07:56:50;;;;;;;8.98;2.03;;;;;;;-142.75;100.00;77623.56;5029145;28;20092;-66
2023/06/02 07:59:18;;;;;;;6.60;2.03;;;;;;;-142.75;100.00;77609.78;5027774;28;20017;-66
2023/06/02 08:01:44;;;;;;;7.03;1.60;;;;;;;-142.75;100.00;77609.78;5029029;28;20397;-66
2023/06/02 08:04:09;;;;;;;9.60;2.42;;;;;;;-142.75;100.00;77590.09;5028836;28;20029;-65
2023/06/02 08:06:35;;;;;;;11.27;1.77;;;;;;;-142.75;100.00;77586.16;5045862;28;20053;-66
2023/06/02 08:09:00;;;;;;;10.07;1.85;;;;;;;-142.75;100.00;77556.63;5028030;28;20083;-66
2023/06/02 08:11:26;;;;;;;5.95;1.55;;;;;;;-142.75;100.00;77556.63;5028210;28;20032;-65
2023/06/02 08:13:51;;;;;;;8.85;1.40;;;;;;;-142.75;100.00;77570.41;5030064;28;20075;-66
2023/06/02 08:16:16;;;;;;;10.32;1.85;;;;;;;-142.75;100.00;77574.34;5027001;28;20017;-63
2023/06/02 08:18:42;;;;;;;12.45;2.05;;;;;;;-142.75;100.00;77580.25;5029139;28;20040;-66
2023/06/02 08:21:07;;;;;;;7.97;1.60;;;;;;;-142.75;100.00;77554.66;5027587;28;20017;-67
2023/06/02 08:23:33;;;;;;;6.72;1.33;;;;;;;-142.75;100.00;77546.78;5042161;28;20397;-65
2023/06/02 08:25:59;;;;;;;10.52;2.40;;;;;;;-142.75;100.00;77540.88;5027921;28;20036;-66
2023/06/02 08:28:27;;;;;;;6.22;1.70;;;;;;;-142.75;100.00;77550.72;5027166;28;20025;-66
2023/06/02 08:30:58;;;;;;;6.35;1.23;;;;;;;-142.75;100.00;77531.03;5026024;28;20068;-66
2023/06/02 08:33:24;;;;;;;10.10;1.83;;;;;;;-142.75;100.00;77515.28;5028416;28;20394;-67
2023/06/02 08:35:51;;;;;;;8.35;1.90;;;;;;;-142.75;100.00;77483.78;5028322;28;20107;-66
2023/06/02 08:38:17;;;;;;;12.52;2.00;;;;;;;-142.75;100.00;77483.78;5028660;28;20123;-64
2023/06/02 08:40:45;;;;;;;6.80;1.55;;;;;;;-142.75;100.00;77468.03;5028401;28;20151;-67
2023/06/02 08:43:13;;;;;;;7.95;1.52;;;;;;;-142.75;100.00;77460.13;5028752;28;20033;-66
2023/06/02 08:45:49;;;;;;;9.68;2.08;;;;;;;-142.75;100.00;77460.13;5028642;28;20037;-66
2023/06/02 08:48:16;;;;;;;8.20;1.80;;;;;;;-142.75;100.00;77440.44;5029199;28;20079;-66
2023/06/02 08:50:50;;;;;;;7.55;1.52;;;;;;;-142.75;100.00;77456.22;5028361;28;20390;-66
2023/06/02 08:53:16;;;;;;;12.43;2.30;;;;;;;-142.75;100.00;77444.38;5028738;28;20032;-68
2023/06/02 08:55:42;;;;;;;12.32;2.30;;;;;;;-142.75;100.00;77438.47;5028630;28;20022;-65
2023/06/02 08:58:11;;;;;;;12.07;2.33;;;;;;;-142.75;100.00;77444.38;5028939;28;20059;-66
2023/06/02 09:00:37;;;;;;;11.80;2.22;;;;;;;-142.75;100.00;77428.63;5042629;28;20562;-66
2023/06/02 09:03:03;;;;;;;10.07;1.60;;;;;;;-142.75;100.00;77448.34;5048636;28;20037;-67
2023/06/02 09:05:31;;;;;;;15.13;2.20;;;;;;;-142.75;100.00;77444.38;5048075;28;20020;-65
2023/06/02 09:08:09;;;;;;;8.57;1.88;;;;;;;-142.75;100.00;77456.22;5047943;28;20079;-65
2023/06/02 09:10:40;;;;;;;8.90;1.40;;;;;;;-142.75;100.00;77440.44;5048101;28;20401;-65
2023/06/02 09:13:09;;;;;;;8.85;1.92;;;;;;;-142.75;100.00;77432.56;5027753;28;20145;-66
2023/06/02 09:15:35;;;;;;;9.13;2.20;;;;;;;-142.75;100.00;77444.38;5028218;28;20021;-64
2023/06/02 09:18:11;;;;;;;10.60;1.80;;;;;;;-142.75;100.00;77436.50;5027585;28;20025;-64
2023/06/02 09:20:38;;;;;;;;;;;;;;;-142.75;100.00;77446.34;5028276;28;20120;-65
2023/06/02 09:23:03;;;;;;;8.25;1.48;;;;;;;-142.75;100.00;77442.41;5027968;28;19913;-66
2023/06/02 09:25:30;;;;;;;8.32;1.85;;;;;;;-142.75;100.00;77466.03;5027720;28;20029;-65
2023/06/02 09:27:57;;;;;;;4.60;1.20;;;;;;;-142.75;100.00;77452.25;5027075;28;20200;-65
2023/06/02 09:30:23;;;;;;;8.20;2.13;;;;;;;-142.75;100.00;77450.28;5025417;28;20029;-67
2023/06/02 09:32:57;;;;;;;7.38;1.52;;;;;;;-142.75;100.00;77452.25;5026560;28;20056;-67
2023/06/02 09:35:44;;;;;;;5.82;1.88;;;;;;;-142.75;100.00;77452.25;5027386;28;20060;-67
2023/06/02 09:38:14;;;;;;;16.05;1.95;;;;;;;-142.75;100.00;77460.13;5026535;28;20025;-64
2023/06/02 09:40:40;;;;;;;11.73;2.05;;;;;;;-142.75;100.00;77462.13;5026689;28;20075;-65
2023/06/02 09:43:08;;;;;;;18.35;2.63;;;;;;;-142.75;100.00;77448.34;5026221;28;20029;-66
2023/06/02 09:46:00;;;;;;;18.70;2.15;;;;;;;-142.75;100.00;77438.47;5027256;28;20116;-66
2023/06/02 09:48:29;;;;;;;10.93;1.88;;;;;;;-142.75;100.00;77464.09;5026092;28;20506;-66
2023/06/02 09:50:55;;;;;;;6.22;1.63;;;;;;;-142.75;100.00;77479.84;5041995;28;20782;-67
2023/06/02 09:53:22;;;;;;;7.25;1.75;;;;;;;-142.75;100.00;77464.09;5026950;28;20040;-66
2023/06/02 09:55:48;;;;;;;6.30;1.48;;;;;;;-142.75;100.00;77460.13;5026891;28;20510;-66
2023/06/02 09:58:14;;;;;;;15.57;2.33;;;;;;;-142.75;100.00;77462.13;5026985;28;20596;-66
2023/06/02 10:00:40;;;;;;;9.05;1.90;;;;;;;-142.75;100.00;77460.13;5026338;28;20029;-65
2023/06/02 10:03:06;;;;;;;9.45;1.98;;;;;;;-142.75;100.00;77456.22;5042475;28;20131;-66
2023/06/02 10:05:33;;;;;;;17.20;2.35;;;;;;;-142.75;100.00;77487.72;5026804;28;20017;-67
2023/06/02 10:08:16;;;;;;;10.85;2.42;;;;;;;-142.75;100.00;77511.34;5026688;28;20060;-67
2023/06/02 10:11:19;;;;;;;8.68;1.77;;;;;;;-142.75;100.00;77487.72;5027174;28;20513;-66
2023/06/02 10:14:15;;;;;;;11.57;1.80;;;;;;;-142.75;100.00;77479.84;5026551;28;20040;-66
2023/06/02 10:17:05;;;;;;;11.77;2.65;;;;;;;-142.75;100.00;77434.53;5026498;28;20031;-67
2023/06/02 10:19:50;;;;;;;8.80;2.33;;;;;;;-142.75;100.00;77432.56;5026329;28;20020;-66
2023/06/02 10:22:23;;;;;;;11.18;1.92;;;;;;;-142.75;100.00;77408.94;5026251;28;20152;-67
2023/06/02 10:24:53;;;;;;;12.25;1.88;;;;;;;-142.75;100.00;77416.81;5025345;28;20065;-66
2023/06/02 10:27:29;;;;;;;10.30;2.13;;;;;;;-142.75;100.00;77428.63;5024927;28;20025;-65
2023/06/02 10:29:55;;;;;;;12.25;2.03;;;;;;;-142.75;100.00;77397.13;5024924;28;20083;-62
2023/06/02 10:32:23;;;;;;;16.67;2.17;;;;;;;-142.75;100.00;77434.53;5025976;28;20025;-64
2023/06/02 10:34:53;;;;;;;8.98;2.10;;;;;;;-142.75;100.00;77430.59;5025967;28;20096;-63
2023/06/02 10:37:20;;;;;;;13.15;2.08;;;;;;;-142.75;100.00;77438.47;5025998;28;20033;-67
2023/06/02 10:39:47;;;;;;;8.75;2.03;;;;;;;-142.75;100.00;77406.97;5024935;28;20104;-67
2023/06/02 10:42:14;;;;;;;15.32;2.10;;;;;;;-142.75;100.00;77416.81;5025341;28;20039;-67
2023/06/02 10:44:40;;;;;;;9.10;1.92;;;;;;;-142.75;100.00;77371.53;5025868;28;20115;-68
2023/06/02 10:47:17;;;;;;;7.28;1.73;;;;;;;-142.75;100.00;77351.84;5025390;28;20748;-67
2023/06/02 10:49:54;;;;;;;10.23;2.00;;;;;;;-142.75;100.00;77343.97;5023343;28;20025;-70
2023/06/02 10:52:23;;;;;;;10.68;1.95;;;;;;;-142.75;100.00;77357.75;5037884;28;20025;-69
2023/06/02 10:55:06;;;;;;;8.20;2.08;;;;;;;-142.75;100.00;77318.38;5045184;28;20017;-70
2023/06/02 10:57:51;;;;;;;8.00;2.40;;;;;;;-142.75;100.00;77298.69;5055883;28;20021;-69
2023/06/02 11:00:32;;;;;;;9.55;2.22;;;;;;;-142.75;100.00;77310.50;5024158;28;20099;-69
2023/06/02 11:02:57;;;;;;;7.78;1.90;;;;;;;-142.75;100.00;77280.97;5040847;28;20029;-69
2023/06/02 11:05:27;;;;;;;7.75;2.30;;;;;;;-142.75;100.00;77271.13;5025655;28;20636;-69
2023/06/02 11:08:11;;;;;;;11.40;1.95;;;;;;;-142.75;100.00;77271.13;5040757;28;20584;-70